Etusivu
METAR-TAF:

METAR-TAF

Lentoasemat :

Ontario Municipal Airport

Ontario, Oregon, Yhdysvallat

Leveyspiiri: 44-01-10N, Pituuspiiri: 117-00-35W, korkeus merenpinnasta: 667 m

Tämänhetkinen sää

Tämä raportti tehtiin 10 minuuttia sitten, kello 13.53 UTC
Tuuli 3 kn pohjoisen/luoteesta
Lämpötila 18°C
Kosteus 37%
Ilmanpaine 1017 hPa
Näkyvyys: 16.1 km
selkeää

METAR: KONO 201353Z AUTO 33003KT 10SM CLR 18/03 A3003 RMK AO2 SLP154 T01780028

Aika: 08:03 (14:03 UTC)


TAF: puuttuu

Säähavainnot ja -ennusteet yli 4000 lentoasemalta (METAR- ja TAF-raportit).

Käytössä olevat sääasemat on merkitty karttaan keltaisilla ja punaisilla pisteillä.

Aseta hiiri pisteen päälle nähdäksesi sääaseman nimen.

Klikkaa sitten nähdäksesi säähavainnot ja -ennusteet.

Kartan vaihtaminen: klikkaa mustalla rastilla varustettuja vihreitä pisteitä, niin voit zoomata sisään; viivalla varustettua vihreää pistettä, niin voit zoomata ulos tai vihreitä nuolia, niin pääset viereisille kartoille.


METAR-TAF: